Time;durP1;ratioP1;P1;durP2;ratioP2;P2;SDS_P1;SDS_P2;PMS_P1;PMS_P2;Temp;Humidity;BMP_temperature;BMP_pressure;BME280_temperature;BME280_humidity;BME280_pressure;Samples;Min_cycle;Max_cycle;Signal;HPM_P1;HPM_P2
2022/04/06 00:00:13;;;;;;;2.50;2.30;;;;;;;4.25;88.13;91943.94;5020588;28;20561;-83
2022/04/06 00:02:41;;;;;;;1.67;1.57;;;;;;;4.12;88.76;91945.16;5019299;28;20669;-83
2022/04/06 00:05:09;;;;;;;1.20;1.20;;;;;;;4.08;89.88;91976.94;5019567;28;20297;-84
2022/04/06 00:07:37;;;;;;;1.77;1.47;;;;;;;4.29;90.73;92010.47;5020175;28;20210;-83
2022/04/06 00:10:05;;;;;;;1.80;1.70;;;;;;;4.29;89.26;91987.97;5019448;28;20601;-84
2022/04/06 00:12:32;;;;;;;1.97;1.97;;;;;;;3.97;90.29;91963.09;5020469;28;20651;-84
2022/04/06 00:15:02;;;;;;;2.47;2.10;;;;;;;3.93;89.33;91932.41;5018540;28;20556;-84
2022/04/06 00:17:30;;;;;;;2.03;1.77;;;;;;;4.36;89.50;92001.94;5020463;28;20590;-83
2022/04/06 00:19:57;;;;;;;1.47;1.47;;;;;;;4.40;89.46;92020.97;5018783;28;20458;-83
2022/04/06 00:22:25;;;;;;;1.80;1.70;;;;;;;4.17;90.45;92015.81;5019387;28;20700;-83
2022/04/06 00:24:52;;;;;;;1.67;1.57;;;;;;;3.79;90.31;91948.63;5019247;28;20638;-83
2022/04/06 00:27:20;;;;;;;1.43;1.43;;;;;;;3.72;90.65;91948.81;5019026;28;20284;-83
2022/04/06 00:29:48;;;;;;;1.13;1.13;;;;;;;3.74;89.63;91937.09;5018581;28;20479;-83
2022/04/06 00:32:16;;;;;;;1.57;1.50;;;;;;;4.32;88.68;91997.91;5018911;28;20578;-83
2022/04/06 00:37:28;;;;;;;1.07;1.07;;;;;;;4.21;89.19;92024.91;5018507;28;20217;-83
2022/04/06 00:39:57;;;;;;;0.93;0.93;;;;;;;3.75;89.68;91951.22;5018849;28;20478;-83
2022/04/06 00:42:24;;;;;;;1.30;1.30;;;;;;;4.32;88.68;92037.09;5017693;28;20498;-83
2022/04/06 00:44:52;;;;;;;1.53;1.53;;;;;;;3.72;89.50;91933.81;5019094;28;20680;-84
2022/04/06 00:47:20;;;;;;;0.70;0.70;;;;;;;3.60;89.46;91916.69;5019552;28;20464;-83
2022/04/06 00:49:48;;;;;;;1.20;1.20;;;;;;;3.97;89.10;91971.41;5018708;28;20471;-83
2022/04/06 00:52:15;;;;;;;1.00;1.00;;;;;;;4.18;88.86;91997.47;5018494;28;20646;-83
2022/04/06 00:54:43;;;;;;;1.20;1.20;;;;;;;3.74;89.46;91936.28;5018092;28;20626;-83
2022/04/06 00:57:13;;;;;;;1.00;1.00;;;;;;;4.12;89.94;92022.63;5019089;28;20573;-84
2022/04/06 00:59:42;;;;;;;1.23;0.90;;;;;;;4.07;89.62;92001.97;5018038;28;20637;-83
2022/04/06 01:02:10;;;;;;;1.27;1.13;;;;;;;3.71;90.07;91964.66;5017547;28;20598;-83
2022/04/06 01:04:39;;;;;;;0.90;0.90;;;;;;;3.73;90.48;91967.94;5018120;28;20216;-83
2022/04/06 01:07:06;;;;;;;0.90;0.90;;;;;;;3.61;90.30;91944.97;4997928;28;20564;-83
2022/04/06 01:09:34;;;;;;;1.70;1.70;;;;;;;3.79;91.25;92001.09;4998923;28;20615;-84
2022/04/06 01:12:03;;;;;;;1.10;1.10;;;;;;;3.51;91.21;91971.88;5017585;28;20600;-84
2022/04/06 01:14:31;;;;;;;1.03;1.03;;;;;;;3.45;91.88;91973.69;5019182;28;20201;-84
2022/04/06 01:16:59;;;;;;;1.23;1.20;;;;;;;3.73;92.25;92022.88;5018664;28;20285;-83
2022/04/06 01:19:32;;;;;;;1.17;1.17;;;;;;;3.75;92.55;92006.19;5017682;28;20281;-83
2022/04/06 01:22:01;;;;;;;1.97;1.90;;;;;;;3.42;91.47;91937.19;5017563;28;20501;-83
2022/04/06 01:24:30;;;;;;;2.07;1.63;;;;;;;3.83;91.26;92007.66;5017839;28;20626;-83
2022/04/06 01:27:00;;;;;;;1.03;1.03;;;;;;;3.80;89.89;91986.06;5017579;28;20598;-83
2022/04/06 01:29:28;;;;;;;1.47;1.37;;;;;;;4.06;89.71;92026.13;5017256;28;20629;-83
2022/04/06 01:31:55;;;;;;;0.90;0.90;;;;;;;3.88;90.66;92038.31;5017231;28;20657;-83
2022/04/06 01:34:23;;;;;;;1.33;1.33;;;;;;;3.60;92.17;92020.75;5017764;28;20589;-83
2022/04/06 01:36:51;;;;;;;1.10;1.10;;;;;;;3.22;93.71;91999.25;5018537;28;20521;-83
2022/04/06 01:39:18;;;;;;;1.40;1.40;;;;;;;3.00;94.65;91974.03;5017017;28;20500;-83
2022/04/06 01:41:47;;;;;;;1.40;1.40;;;;;;;3.23;95.58;92034.16;5017056;28;20743;-83
2022/04/06 01:44:14;;;;;;;1.03;1.03;;;;;;;3.26;95.22;92029.13;5017244;28;20540;-83
2022/04/06 01:46:41;;;;;;;1.13;1.03;;;;;;;3.36;94.71;92039.69;5017510;28;20614;-83
2022/04/06 01:54:38;;;;;;;1.20;1.20;;;;;;;2.91;95.44;92000.03;5017324;28;20593;-83
2022/04/06 01:57:09;;;;;;;1.23;1.23;;;;;;;2.47;95.53;91946.25;5017159;28;20606;-83
2022/04/06 01:59:37;;;;;;;1.30;1.30;;;;;;;2.62;96.39;91974.97;5017672;28;20292;-83
2022/04/06 02:02:05;;;;;;;1.67;1.63;;;;;;;2.78;95.25;91970.44;5017351;28;20640;-83
2022/04/06 02:04:33;;;;;;;1.30;1.30;;;;;;;2.88;95.81;92001.75;5016863;28;20625;-84
2022/04/06 02:07:01;;;;;;;1.20;1.20;;;;;;;2.93;95.99;92004.97;5017802;28;20632;-83
2022/04/06 02:09:28;;;;;;;1.47;1.47;;;;;;;3.01;94.80;92009.78;5016563;28;20539;-84
2022/04/06 02:11:56;;;;;;;1.53;1.53;;;;;;;3.28;94.70;92037.38;5016001;28;20614;-83
2022/04/06 02:14:25;;;;;;;2.27;2.17;;;;;;;3.01;94.60;91975.66;5016581;28;20544;-84
2022/04/06 02:16:53;;;;;;;1.57;1.37;;;;;;;2.86;94.56;91971.06;5016595;28;20535;-84
2022/04/06 02:19:21;;;;;;;1.37;1.37;;;;;;;3.18;95.31;92025.16;5017190;28;20460;-84
2022/04/06 02:21:48;;;;;;;1.40;1.40;;;;;;;2.88;95.40;91981.81;5016772;28;20585;-84
2022/04/06 02:24:17;;;;;;;1.50;1.50;;;;;;;2.85;95.87;92012.66;5016252;28;20661;-84
2022/04/06 02:26:44;;;;;;;1.47;1.47;;;;;;;2.75;96.37;92005.44;5016188;28;20629;-84
2022/04/06 02:29:12;;;;;;;1.63;1.63;;;;;;;2.88;96.23;92022.53;5016534;28;20543;-84
2022/04/06 02:31:41;;;;;;;2.10;2.00;;;;;;;2.74;96.89;91999.63;5017167;28;20581;-84
2022/04/06 02:34:08;;;;;;;2.30;2.17;;;;;;;3.03;96.78;92041.34;5015790;28;20276;-84
2022/04/06 02:36:35;;;;;;;1.50;1.50;;;;;;;2.87;96.26;92000.94;5016211;28;20633;-84
2022/04/06 02:39:03;;;;;;;1.27;1.27;;;;;;;2.79;96.08;91987.84;5016644;28;20656;-84
2022/04/06 02:41:31;;;;;;;1.33;1.10;;;;;;;3.09;95.30;92022.91;5016231;28;20634;-84
2022/04/06 02:43:58;;;;;;;2.07;2.00;;;;;;;3.40;93.73;92063.69;5016293;28;20202;-84
2022/04/06 02:46:26;;;;;;;1.43;1.43;;;;;;;2.99;93.99;92011.47;5016293;28;20481;-85
2022/04/06 02:48:56;;;;;;;1.63;1.63;;;;;;;3.11;94.65;92051.94;5016555;28;20509;-84
2022/04/06 02:51:23;;;;;;;1.40;1.40;;;;;;;2.65;93.61;91979.06;5015996;28;20496;-84
2022/04/06 02:53:51;;;;;;;1.70;1.60;;;;;;;2.82;93.43;91996.91;5016189;28;20467;-84
2022/04/06 02:56:18;;;;;;;1.60;1.60;;;;;;;3.29;93.88;92063.16;5016298;28;20590;-83
2022/04/06 02:58:45;;;;;;;2.07;2.07;;;;;;;3.34;93.99;92079.66;5017394;28;20580;-84
2022/04/06 03:01:13;;;;;;;0.83;0.83;;;;;;;3.25;93.44;92069.06;5015319;28;20642;-84
2022/04/06 03:03:40;;;;;;;2.87;2.67;;;;;;;2.75;95.07;92033.69;5015399;28;20194;-84
2022/04/06 03:06:09;;;;;;;1.63;1.63;;;;;;;2.49;95.92;91994.38;5016422;28;20596;-84
2022/04/06 03:08:36;;;;;;;1.77;1.77;;;;;;;2.66;96.35;92041.34;5016040;28;20646;-84
2022/04/06 03:11:04;;;;;;;2.87;2.10;;;;;;;2.83;96.41;92080.88;5015154;28;20648;-84
2022/04/06 03:13:32;;;;;;;2.37;2.33;;;;;;;2.44;96.94;92018.56;5016004;28;20632;-84
2022/04/06 03:15:59;;;;;;;3.80;3.70;;;;;;;2.38;95.28;91993.78;5015726;28;20224;-83
2022/04/06 03:18:27;;;;;;;1.80;1.80;;;;;;;3.10;95.22;92082.72;5016567;28;20609;-84
2022/04/06 03:20:54;;;;;;;1.27;1.27;;;;;;;2.52;95.51;92005.94;5015832;28;20549;-84
2022/04/06 03:23:23;;;;;;;2.13;2.03;;;;;;;2.67;95.29;92035.50;5015096;28;20579;-84
2022/04/06 03:25:50;;;;;;;2.00;1.93;;;;;;;2.50;95.91;92025.91;5016742;28;20215;-84
2022/04/06 03:28:19;;;;;;;1.60;1.60;;;;;;;2.78;96.67;92070.19;5015944;28;20498;-84
2022/04/06 03:30:47;;;;;;;2.67;2.10;;;;;;;2.89;96.37;92080.72;5015791;28;20486;-84
2022/04/06 03:33:15;;;;;;;2.83;1.97;;;;;;;3.07;95.59;92077.81;5015818;28;20618;-84
2022/04/06 03:35:42;;;;;;;2.27;2.17;;;;;;;2.70;94.99;92008.03;5016020;28;20471;-84
2022/04/06 03:38:10;;;;;;;1.90;1.90;;;;;;;2.74;95.38;92023.72;5015555;28;20549;-83
2022/04/06 03:40:39;;;;;;;2.60;2.53;;;;;;;2.71;94.83;92013.81;5015544;28;20578;-84
2022/04/06 03:43:06;;;;;;;2.43;2.27;;;;;;;2.71;93.93;92011.31;5014681;28;20225;-84
2022/04/06 03:45:34;;;;;;;2.53;2.43;;;;;;;3.32;92.54;92093.84;5015518;28;20595;-84
2022/04/06 03:48:01;;;;;;;3.50;3.40;;;;;;;3.32;92.75;92088.84;5015571;28;20601;-84
2022/04/06 03:50:31;;;;;;;1.83;1.73;;;;;;;3.18;93.89;92082.56;5015416;28;20586;-84
2022/04/06 03:52:59;;;;;;;1.60;1.60;;;;;;;3.05;94.45;92081.19;5015822;28;20467;-84
2022/04/06 03:55:27;;;;;;;1.03;1.03;;;;;;;2.80;95.40;92059.31;5015030;28;20515;-84
2022/04/06 03:57:56;;;;;;;3.10;3.00;;;;;;;2.72;94.29;92010.47;5016645;28;20652;-84
2022/04/06 04:00:23;;;;;;;1.83;1.73;;;;;;;2.92;93.13;92046.56;5014833;28;20469;-84
2022/04/06 04:02:53;;;;;;;1.77;1.77;;;;;;;3.00;92.71;92043.88;5014801;28;20638;-85
2022/04/06 04:05:21;;;;;;;1.83;1.73;;;;;;;3.20;92.84;92094.16;5016073;28;20228;-83
2022/04/06 04:07:48;;;;;;;2.83;2.63;;;;;;;2.99;93.43;92084.66;5015521;28;20676;-83
2022/04/06 04:10:19;;;;;;;2.57;2.57;;;;;;;2.74;95.15;92073.59;5015283;28;20628;-83
2022/04/06 04:12:46;;;;;;;2.80;2.60;;;;;;;3.13;93.84;92122.59;5016168;28;20622;-84
2022/04/06 04:15:16;;;;;;;7.50;4.07;;;;;;;3.15;94.43;92122.56;5018752;28;20514;-84
2022/04/06 04:17:43;;;;;;;3.27;3.17;;;;;;;2.45;94.55;92029.38;5018612;28;20559;-84
2022/04/06 04:20:11;;;;;;;3.23;3.03;;;;;;;2.98;95.11;92122.94;5018140;28;20476;-84
2022/04/06 04:22:39;;;;;;;5.87;5.23;;;;;;;2.66;95.57;92092.88;5018320;28;20640;-84
2022/04/06 04:25:10;;;;;;;7.57;5.20;;;;;;;2.86;95.79;92115.72;5018079;28;20229;-84
2022/04/06 04:27:37;;;;;;;5.00;3.60;;;;;;;3.05;95.88;92124.44;5018938;28;20443;-78
2022/04/06 04:30:06;;;;;;;4.43;4.23;;;;;;;3.01;94.82;92095.41;5018957;28;20302;-82
2022/04/06 04:32:35;;;;;;;3.47;3.30;;;;;;;3.35;93.02;92132.91;5015707;28;20586;-83
2022/04/06 04:35:09;;;;;;;4.23;4.03;;;;;;;3.41;92.70;92139.41;5008240;28;20602;-81
2022/04/06 04:37:37;;;;;;;3.53;3.33;;;;;;;3.25;93.38;92131.47;5010043;28;20549;-80
2022/04/06 04:40:06;;;;;;;21.53;4.20;;;;;;;3.44;92.28;92150.13;5013121;28;20206;-82
2022/04/06 04:42:34;;;;;;;5.37;5.07;;;;;;;3.18;93.96;92132.47;5006157;28;20544;-80
2022/04/06 04:45:02;;;;;;;3.37;3.17;;;;;;;3.22;94.19;92144.84;5004749;28;20453;-78
2022/04/06 04:47:30;;;;;;;3.83;3.63;;;;;;;3.33;93.79;92149.56;5007966;28;20293;-80
2022/04/06 04:50:09;;;;;;;3.13;3.03;;;;;;;2.97;94.88;92088.88;5011604;28;20633;-82
2022/04/06 04:52:38;;;;;;;9.77;9.07;;;;;;;2.75;95.75;92093.53;5007238;28;20498;-83
2022/04/06 04:55:14;;;;;;;6.20;5.90;;;;;;;3.21;95.51;92150.66;5005600;28;20602;-83
2022/04/06 04:57:41;;;;;;;4.30;4.03;;;;;;;3.05;95.67;92114.44;5014118;28;20245;-83
2022/04/06 05:00:10;;;;;;;2.17;2.10;;;;;;;3.09;96.54;92145.97;5010455;28;20551;-83
2022/04/06 05:02:43;;;;;;;4.83;4.63;;;;;;;2.57;97.33;92060.69;5006113;28;20661;-86
2022/04/06 05:05:15;;;;;;;4.93;4.63;;;;;;;3.28;96.88;92149.69;5009861;28;20202;-87
2022/04/06 05:07:42;;;;;;;5.00;4.70;;;;;;;3.40;96.44;92153.56;5008809;28;20470;-81
2022/04/06 05:10:12;;;;;;;4.47;4.13;;;;;;;3.57;96.49;92149.00;5013257;28;20626;-81
2022/04/06 05:12:40;;;;;;;33.23;23.70;;;;;;;2.83;97.06;92080.88;5012331;28;20562;-81
2022/04/06 05:15:10;;;;;;;11.80;5.97;;;;;;;3.31;97.81;92158.78;5009202;28;20649;-82
2022/04/06 05:17:37;;;;;;;13.40;12.27;;;;;;;3.30;98.20;92155.47;5004460;28;20206;-82
2022/04/06 05:20:07;;;;;;;11.27;10.47;;;;;;;3.34;98.01;92129.56;5009179;28;20577;-83
2022/04/06 05:22:37;;;;;;;13.43;12.03;;;;;;;3.53;97.04;92132.47;5011765;28;20589;-82
2022/04/06 05:25:07;;;;;;;16.47;12.23;;;;;;;3.74;97.09;92139.41;5013372;28;20304;-84
2022/04/06 05:27:43;;;;;;;12.57;11.07;;;;;;;3.49;96.37;92075.16;5008885;28;20225;-83
2022/04/06 05:30:14;;;;;;;14.47;12.70;;;;;;;4.00;95.77;92128.75;5009363;28;20670;-85
2022/04/06 05:32:43;;;;;;;8.60;7.93;;;;;;;4.25;94.89;92163.09;5012368;28;20657;-84
2022/04/06 05:35:12;;;;;;;16.87;9.23;;;;;;;4.12;94.69;92133.44;5010024;28;20567;-83
2022/04/06 05:37:44;;;;;;;9.67;8.73;;;;;;;4.40;94.58;92160.19;5005973;28;20214;-80
2022/04/06 05:40:17;;;;;;;12.90;10.73;;;;;;;4.25;95.22;92138.09;5005962;28;20440;-82
2022/04/06 05:42:44;;;;;;;12.17;8.07;;;;;;;3.97;95.84;92098.84;5009757;28;20494;-80
2022/04/06 05:45:12;;;;;;;13.77;9.20;;;;;;;4.33;95.23;92153.72;5010972;28;20748;-80
2022/04/06 05:47:39;;;;;;;11.13;7.90;;;;;;;4.32;94.91;92139.59;5010276;28;20567;-79
2022/04/06 05:50:08;;;;;;;17.50;10.90;;;;;;;4.43;94.95;92162.63;5004451;28;20550;-80
2022/04/06 05:52:38;;;;;;;13.50;8.07;;;;;;;4.39;95.29;92143.56;5007947;28;20602;-79
2022/04/06 05:55:08;;;;;;;17.17;11.27;;;;;;;4.51;95.00;92158.22;5011172;28;20573;-80
2022/04/06 05:57:35;;;;;;;20.00;12.03;;;;;;;4.40;95.42;92136.00;5005852;28;20581;-81
2022/04/06 06:00:06;;;;;;;15.53;10.93;;;;;;;4.61;95.84;92161.31;5009183;28;20563;-80
2022/04/06 06:02:34;;;;;;;19.77;9.27;;;;;;;4.69;95.43;92154.38;5005603;28;20302;-80
2022/04/06 06:05:01;;;;;;;9.23;8.13;;;;;;;4.79;95.04;92160.78;5002556;28;20586;-80
2022/04/06 06:07:29;;;;;;;9.93;7.10;;;;;;;4.76;95.11;92148.34;5009332;28;20193;-81
2022/04/06 06:09:56;;;;;;;5.10;4.87;;;;;;;4.67;94.50;92136.13;5011064;28;20575;-81
2022/04/06 06:12:25;;;;;;;5.50;5.20;;;;;;;4.83;94.90;92139.81;5004680;28;20728;-80
2022/04/06 06:14:53;;;;;;;10.07;5.10;;;;;;;4.72;95.09;92116.78;5006648;28;20481;-79
2022/04/06 06:17:21;;;;;;;4.17;3.80;;;;;;;5.13;95.04;92153.91;5008956;28;20582;-79
2022/04/06 06:19:48;;;;;;;5.67;5.17;;;;;;;4.92;93.47;92110.31;5010781;28;20481;-81
2022/04/06 06:22:16;;;;;;;5.57;4.77;;;;;;;5.52;93.46;92158.59;5008401;28;20577;-80
2022/04/06 06:24:43;;;;;;;9.63;6.77;;;;;;;5.72;91.83;92159.59;5004792;28;20280;-78
2022/04/06 06:27:14;;;;;;;8.23;5.37;;;;;;;5.90;90.24;92167.44;5018766;28;20585;-76
2022/04/06 06:29:43;;;;;;;5.53;5.00;;;;;;;5.96;89.23;92149.69;5020048;28;20644;-77
2022/04/06 06:32:12;;;;;;;5.47;5.17;;;;;;;6.07;89.28;92155.97;5024547;28;20533;-77
2022/04/06 06:34:40;;;;;;;6.77;6.10;;;;;;;6.29;88.90;92163.59;5013874;28;20305;-78
2022/04/06 06:37:07;;;;;;;7.03;6.53;;;;;;;6.33;87.94;92150.06;5019097;28;20682;-76
2022/04/06 06:39:35;;;;;;;10.97;7.33;;;;;;;6.53;86.91;92147.72;5012865;28;20571;-77
2022/04/06 06:42:03;;;;;;;9.63;7.53;;;;;;;6.68;85.84;92145.50;5022520;28;20576;-80
2022/04/06 06:44:31;;;;;;;8.63;7.83;;;;;;;6.87;85.50;92154.03;5018816;28;20503;-83
2022/04/06 06:49:50;;;;;;;15.47;6.43;;;;;;;7.27;82.32;92176.78;5010628;28;20584;-81
2022/04/06 06:52:19;;;;;;;9.73;6.27;;;;;;;7.09;82.75;92139.81;5021657;28;20572;-83
2022/04/06 06:54:49;;;;;;;8.73;6.50;;;;;;;7.26;84.24;92162.59;5016951;28;20576;-83
2022/04/06 06:57:17;;;;;;;10.13;6.83;;;;;;;7.27;84.64;92159.19;5022566;28;20624;-83
2022/04/06 06:59:45;;;;;;;5.63;5.30;;;;;;;7.22;82.98;92140.16;5023670;28;20488;-85
2022/04/06 07:02:14;;;;;;;7.07;6.40;;;;;;;7.20;84.74;92126.84;5020131;28;20233;-86
2022/04/06 07:04:41;;;;;;;9.87;6.70;;;;;;;7.43;84.72;92157.78;5013836;28;20640;-84
2022/04/06 07:07:09;;;;;;;7.57;7.07;;;;;;;7.04;86.06;92081.41;5026140;28;20278;-86
2022/04/06 07:09:36;;;;;;;5.63;5.23;;;;;;;7.73;85.42;92162.47;5020372;28;20209;-85
2022/04/06 07:12:06;;;;;;;6.90;5.83;;;;;;;7.77;84.30;92146.41;5016645;28;20642;-84
2022/04/06 07:14:36;;;;;;;9.47;7.07;;;;;;;8.09;83.60;92172.75;5012039;28;20279;-85
2022/04/06 07:17:04;;;;;;;7.67;5.93;;;;;;;8.05;82.24;92138.56;5019072;28;20549;-85
2022/04/06 07:19:38;;;;;;;6.73;6.23;;;;;;;8.13;79.29;92116.41;5021562;28;20562;-86
2022/04/06 07:22:09;;;;;;;10.00;5.33;;;;;;;8.17;77.72;92105.31;5019159;28;20586;-85
2022/04/06 07:24:36;;;;;;;9.07;6.33;;;;;;;8.31;76.89;92111.47;5030596;28;20567;-83
2022/04/06 07:27:06;;;;;;;5.70;5.20;;;;;;;8.59;72.70;92140.47;5027964;28;20202;-84
2022/04/06 07:29:34;;;;;;;5.13;4.67;;;;;;;8.86;71.04;92182.09;5029397;28;20194;-83
2022/04/06 07:32:02;;;;;;;11.70;5.77;;;;;;;8.74;73.28;92128.03;5029388;28;20232;-83
2022/04/06 07:34:29;;;;;;;15.80;7.20;;;;;;;9.08;73.65;92175.25;5029267;28;20470;-79
2022/04/06 07:36:58;;;;;;;6.20;5.40;;;;;;;8.83;73.80;92095.78;5026458;28;20475;-81
2022/04/06 07:39:27;;;;;;;4.47;4.17;;;;;;;9.36;69.52;92207.59;5027941;28;20549;-77
2022/04/06 07:41:56;;;;;;;3.77;3.50;;;;;;;9.14;69.21;92156.50;5021141;28;20593;-79
2022/04/06 07:44:23;;;;;;;4.30;4.00;;;;;;;9.47;70.12;92185.22;5028268;28;20524;-78
2022/04/06 07:46:51;;;;;;;4.53;4.23;;;;;;;9.54;69.06;92183.25;5032805;28;20605;-82
2022/04/06 07:49:19;;;;;;;3.27;3.03;;;;;;;9.65;68.21;92193.66;5031876;28;20470;-79
2022/04/06 07:51:48;;;;;;;2.53;2.30;;;;;;;9.79;65.66;92203.13;5030378;28;20567;-77
2022/04/06 07:54:17;;;;;;;3.03;2.83;;;;;;;9.90;66.87;92191.66;5029452;28;20498;-78
2022/04/06 07:56:44;;;;;;;2.57;2.47;;;;;;;10.02;67.06;92189.44;5033662;28;20595;-79
2022/04/06 07:59:12;;;;;;;2.00;1.90;;;;;;;10.10;66.50;92180.59;5036035;28;20577;-82
2022/04/06 08:01:40;;;;;;;8.10;2.67;;;;;;;10.28;65.98;92194.09;5030665;28;20597;-76
2022/04/06 08:04:07;;;;;;;2.47;2.00;;;;;;;10.38;63.82;92200.31;5029734;28;20608;-79
2022/04/06 08:06:35;;;;;;;1.23;1.23;;;;;;;10.31;61.01;92193.91;5031567;28;20491;-83
2022/04/06 08:09:04;;;;;;;2.17;1.97;;;;;;;10.53;62.07;92208.88;5035798;28;20559;-79
2022/04/06 08:11:33;;;;;;;3.53;2.37;;;;;;;10.56;62.27;92181.75;5030969;28;20598;-78
2022/04/06 08:14:01;;;;;;;3.20;2.80;;;;;;;10.57;61.44;92169.94;5026966;28;20518;-77
2022/04/06 08:16:28;;;;;;;2.30;2.20;;;;;;;10.94;60.36;92212.66;5032915;28;20578;-77
2022/04/06 08:18:56;;;;;;;3.57;2.87;;;;;;;11.11;59.76;92215.16;5033607;28;20527;-77
2022/04/06 08:21:33;;;;;;;2.87;2.37;;;;;;;11.28;60.26;92201.63;5033763;28;20209;-78
2022/04/06 08:24:01;;;;;;;2.80;2.57;;;;;;;11.37;59.33;92208.75;5035141;28;20637;-77
2022/04/06 08:26:28;;;;;;;5.20;3.50;;;;;;;11.52;57.77;92218.06;5034899;28;20585;-78
2022/04/06 08:28:57;;;;;;;2.10;2.00;;;;;;;11.69;58.62;92202.00;5031731;28;20592;-77
2022/04/06 08:31:24;;;;;;;3.63;3.33;;;;;;;11.63;56.60;92185.41;5034667;28;20242;-76
2022/04/06 08:33:51;;;;;;;3.83;3.53;;;;;;;11.94;55.18;92211.66;5028931;28;20568;-76
2022/04/06 08:36:20;;;;;;;3.07;2.87;;;;;;;12.00;56.47;92176.66;5022335;28;20499;-76
2022/04/06 08:38:47;;;;;;;5.43;4.77;;;;;;;12.19;55.87;92184.06;5019307;28;20537;-75
2022/04/06 08:41:16;;;;;;;3.13;2.93;;;;;;;12.40;55.27;92192.16;5019396;28;20492;-76
2022/04/06 08:43:46;;;;;;;2.63;2.43;;;;;;;12.50;54.82;92195.03;5022629;28;20608;-78
2022/04/06 08:46:18;;;;;;;4.13;2.60;;;;;;;12.68;53.78;92199.84;5032191;28;20457;-77
2022/04/06 08:48:49;;;;;;;4.73;3.80;;;;;;;12.83;50.86;92220.97;5032251;28;20247;-77
2022/04/06 08:51:18;;;;;;;3.70;3.50;;;;;;;12.88;50.26;92216.44;5029521;28;20214;-76
2022/04/06 08:53:46;;;;;;;3.60;2.73;;;;;;;13.00;50.46;92213.22;5021488;28;20268;-80
2022/04/06 08:56:14;;;;;;;6.17;3.17;;;;;;;13.15;51.22;92189.50;5024827;28;20577;-75
2022/04/06 08:58:41;;;;;;;5.05;2.40;;;;;;;13.31;48.06;92216.50;5019043;28;20330;-76
2022/04/06 09:01:09;;;;;;;4.25;2.50;;;;;;;13.41;50.37;92189.69;5017064;28;20484;-76
2022/04/06 09:03:38;;;;;;;2.78;2.45;;;;;;;13.49;48.99;92207.78;5021020;28;20249;-77
2022/04/06 09:06:07;;;;;;;2.60;2.40;;;;;;;13.59;47.85;92196.16;5024028;28;20562;-76
2022/04/06 09:08:40;;;;;;;2.63;2.53;;;;;;;13.66;46.40;92194.88;5018503;28;20649;-78
2022/04/06 09:11:08;;;;;;;2.13;2.03;;;;;;;13.88;44.90;92212.97;5019375;28;20254;-77
2022/04/06 09:13:36;;;;;;;2.05;1.23;;;;;;;14.08;46.23;92201.59;5017721;28;20604;-73
2022/04/06 09:16:04;;;;;;;3.05;1.88;;;;;;;13.98;44.46;92203.06;5017407;28;20527;-74
2022/04/06 09:18:38;;;;;;;1.63;1.52;;;;;;;14.15;43.84;92212.16;5023316;28;20589;-75
2022/04/06 09:21:05;;;;;;;3.92;1.05;;;;;;;14.18;44.12;92204.34;5026103;28;20574;-75
2022/04/06 09:23:33;;;;;;;1.50;1.40;;;;;;;14.29;45.09;92185.00;5022918;28;20610;-75
2022/04/06 09:26:04;;;;;;;3.22;1.60;;;;;;;14.41;44.31;92189.31;5020592;28;20300;-74
2022/04/06 09:28:39;;;;;;;2.08;1.98;;;;;;;14.52;46.02;92153.88;5021118;28;20476;-80
2022/04/06 09:31:06;;;;;;;3.92;3.72;;;;;;;14.78;45.83;92169.13;5027039;28;20539;-75
2022/04/06 09:33:34;;;;;;;1.80;1.70;;;;;;;14.86;44.22;92177.06;5036749;28;20604;-77
2022/04/06 09:36:18;;;;;;;5.28;1.50;;;;;;;15.00;42.49;92186.31;5035899;28;20447;-75
2022/04/06 09:38:48;;;;;;;1.17;1.17;;;;;;;15.11;41.46;92186.41;5031576;28;20285;-77
2022/04/06 09:41:16;;;;;;;1.55;1.45;;;;;;;15.09;42.77;92176.38;5036598;28;20232;-76
2022/04/06 09:43:45;;;;;;;1.70;1.60;;;;;;;15.07;41.42;92167.19;5044201;28;20612;-77
2022/04/06 09:49:09;;;;;;;9.68;2.45;;;;;;;15.18;42.03;92152.84;5028868;28;20507;-76
2022/04/06 09:51:39;;;;;;;3.50;2.08;;;;;;;15.39;42.60;92165.00;5037208;28;20573;-76
2022/04/06 09:54:09;;;;;;;2.67;1.55;;;;;;;15.52;39.80;92181.13;5056880;28;20637;-76
2022/04/06 09:56:37;;;;;;;1.67;1.58;;;;;;;15.51;38.67;92180.28;5056621;28;20668;-78
2022/04/06 09:59:05;;;;;;;1.77;1.67;;;;;;;15.37;38.73;92149.88;5055670;28;20461;-77
2022/04/06 10:01:34;;;;;;;7.05;1.02;;;;;;;15.82;38.47;92173.94;5056266;28;20609;-75
2022/04/06 10:04:05;;;;;;;1.95;1.30;;;;;;;15.85;38.50;92165.25;5056414;28;20627;-75
2022/04/06 10:06:34;;;;;;;0.90;0.90;;;;;;;16.03;37.05;92171.59;5043353;28;20557;-75
2022/04/06 10:09:05;;;;;;;0.85;0.85;;;;;;;16.23;38.33;92155.69;5034744;28;20674;-75
2022/04/06 10:11:34;;;;;;;1.02;1.02;;;;;;;16.36;38.07;92153.09;5036159;28;20635;-76
2022/04/06 10:14:02;;;;;;;1.00;1.00;;;;;;;16.40;37.15;92165.50;5036684;28;20683;-76
2022/04/06 10:16:30;;;;;;;1.15;1.10;;;;;;;16.42;37.17;92161.09;5035061;28;20241;-76
2022/04/06 10:18:58;;;;;;;0.60;0.60;;;;;;;16.56;33.71;92185.63;5036810;28;20208;-76
2022/04/06 10:21:34;;;;;;;0.77;0.77;;;;;;;16.71;33.05;92145.47;5035732;28;20581;-75
2022/04/06 10:24:20;;;;;;;1.10;1.10;;;;;;;18.37;32.96;92164.97;5036618;28;20504;-76
2022/04/06 10:27:00;;;;;;;1.48;1.38;;;;;;;20.38;31.32;92161.81;5036957;28;20566;-74
2022/04/06 10:29:27;;;;;;;3.30;1.70;;;;;;;21.95;29.64;92158.66;5036579;28;20461;-76
2022/04/06 10:31:54;;;;;;;1.33;1.30;;;;;;;23.38;26.52;92175.75;5036438;28;20584;-76
2022/04/06 10:34:24;;;;;;;1.17;1.17;;;;;;;24.26;26.92;92178.00;5035894;28;20608;-75
2022/04/06 10:37:16;;;;;;;1.55;1.50;;;;;;;24.50;25.95;92163.53;5036133;28;20576;-75
2022/04/06 10:40:01;;;;;;;1.98;1.88;;;;;;;24.60;26.05;92166.78;4995661;28;20202;-76
2022/04/06 10:42:33;;;;;;;5.15;2.75;;;;;;;25.47;25.32;92159.19;5018004;28;20506;-77
2022/04/06 10:45:01;;;;;;;2.90;1.95;;;;;;;25.77;24.62;92165.47;5040225;28;20560;-75
2022/04/06 10:47:29;;;;;;;1.85;1.75;;;;;;;24.47;25.07;92156.91;5042447;28;20555;-77
2022/04/06 10:50:24;;;;;;;1.67;1.58;;;;;;;25.49;24.94;92146.91;5045611;28;20597;-77
2022/04/06 10:53:25;;;;;;;1.70;1.60;;;;;;;25.14;26.31;92126.59;5035222;28;20572;-76
2022/04/06 10:56:02;;;;;;;1.80;1.70;;;;;;;23.96;26.24;92130.28;5031907;28;20574;-76
2022/04/06 10:59:04;;;;;;;1.33;1.23;;;;;;;23.45;27.86;92109.72;5045869;28;20581;-77
2022/04/06 11:01:33;;;;;;;2.10;1.85;;;;;;;23.78;27.37;92103.75;5030079;28;20589;-77
2022/04/06 11:04:03;;;;;;;1.50;1.50;;;;;;;24.45;26.03;92109.75;5024993;28;20309;-77
2022/04/06 11:06:59;;;;;;;1.77;1.67;;;;;;;24.42;26.02;92120.41;5017277;28;20307;-77
2022/04/06 11:12:15;;;;;;;2.08;1.98;;;;;;;23.89;28.20;92072.50;5026676;28;20212;-77
2022/04/06 11:14:44;;;;;;;2.05;1.95;;;;;;;23.36;28.55;92090.81;5033600;28;20624;-76
2022/04/06 11:17:41;;;;;;;1.80;1.70;;;;;;;22.67;29.05;92090.81;5035140;28;20236;-77
2022/04/06 11:20:10;;;;;;;1.60;1.50;;;;;;;22.28;28.53;92074.91;5049348;28;20503;-76
2022/04/06 11:22:39;;;;;;;1.60;1.60;;;;;;;22.46;30.26;92059.44;5052924;28;20255;-77
2022/04/06 11:25:11;;;;;;;1.83;1.73;;;;;;;22.69;29.24;92070.91;5040387;28;20505;-76
2022/04/06 11:27:41;;;;;;;6.47;1.40;;;;;;;22.29;28.23;92079.91;5036262;28;20547;-76
2022/04/06 11:30:12;;;;;;;1.27;1.27;;;;;;;22.42;27.91;92073.59;5034909;28;20649;-76
2022/04/06 11:32:40;;;;;;;1.27;1.17;;;;;;;22.20;28.29;92073.06;5034753;28;20189;-75
2022/04/06 11:35:09;;;;;;;1.25;1.25;;;;;;;21.97;29.30;92041.00;5035033;28;20577;-75
2022/04/06 11:37:44;;;;;;;1.80;1.70;;;;;;;21.96;30.38;92038.59;5033572;28;20194;-76
2022/04/06 11:40:12;;;;;;;1.48;1.38;;;;;;;21.88;29.50;92032.38;5031149;28;20557;-75
2022/04/06 11:42:41;;;;;;;1.65;1.55;;;;;;;21.56;30.20;92037.19;5027535;28;20577;-76
2022/04/06 11:45:10;;;;;;;2.20;1.98;;;;;;;21.02;32.31;92022.53;5031704;28;20558;-74
2022/04/06 11:47:38;;;;;;;2.25;2.15;;;;;;;20.81;34.04;92007.34;5020538;28;20586;-75
2022/04/06 11:50:11;;;;;;;3.17;1.90;;;;;;;20.56;32.83;92008.75;5020481;28;20691;-74
2022/04/06 11:52:40;;;;;;;2.05;1.88;;;;;;;19.99;33.95;91999.38;5018227;28;20551;-74
2022/04/06 11:55:08;;;;;;;2.05;1.95;;;;;;;19.75;35.58;91981.00;5015698;28;20574;-75
2022/04/06 11:57:37;;;;;;;2.20;2.10;;;;;;;19.69;36.84;91981.53;5018018;28;20593;-75
2022/04/06 12:00:10;;;;;;;3.50;1.88;;;;;;;19.49;36.70;91980.72;5025628;28;20197;-74
2022/04/06 12:03:04;;;;;;;2.33;2.13;;;;;;;19.49;37.42;91973.03;5028367;28;20570;-75